Mijn webcam Meer informatie My webcam


Webcam richting Noord-Oost Meer informatie webcam facing north-east


Regen radar Meer informatie rain snow radar


Bezoek onze andere website:

Template documentation
and downloads

And another site



METAR rapporten vliegvelden

   
EHGG - Groningen/Eelde
Gewijzigd: 26-04-2017 15:25
Light Showers, Regen, Grotendeels bewolkt  
Light Showers, Regen, Grotendeels bewolkt  
   Wind: NW 4.6 m/s
Wind: NW 4.6 m/s
Temperatuur: 5°C
Voelt als: 2°C
Dauwpunt: 2°C
Vochtigheid: 81%
Barometer: 1013 hPa
Bewolking: Grotendeels bewolkt
Zicht: Meer dan 10 km
Bewolking: Licht bewolkt 1000 ft,
Gedeeltelijk bewolkt 1300 ft,
Licht bewolkt 1500 ft,
Grotendeels bewolkt 1600 ft
EHGG 261325Z AUTO 31009KT 270V360 9999 -SHRA FEW010 SCT013 FEW015CB BKN016 05/02 Q1013 NOSIG
EHMA - Schiermonnikoog
Gewijzigd: 26-04-2017 15:25
Licht bewolkt  
Licht bewolkt  
   Wind: NNW 5.7 m/s
Wind: NNW 5.7 m/s
Temperatuur: 7°C
Voelt als: 3°C
Dauwpunt: 1°C
Vochtigheid: 66%
Barometer: 1013 hPa
Bewolking: Licht bewolkt
Zicht: Meer dan 10 km
Bewolking: Licht bewolkt 2400 ft
EHMA 261325Z AUTO 34011KT 9999 FEW024 07/01 Q1013
EHMG - Terschelling
Gewijzigd: 26-04-2017 15:25
Helder  
Helder  
   Wind: NNW 8.2 m/s
Wind: NNW 8.2 m/s
Temperatuur: 7°C
Voelt als: 3°C
Dauwpunt: 3°C
Vochtigheid: 76%
Barometer: 1013 hPa
Bewolking: Helder
Zicht: Meer dan 10 km
Bewolking: Helder
EHMG 261325Z AUTO 33016KT 9999 NCD 07/03 Q1013
EHVL - Vlieland
Gewijzigd: 26-04-2017 15:25
Licht bewolkt  
Licht bewolkt  
   Wind: Noorden 6.7 m/s
Wind: Noorden 6.7 m/s
Temperatuur: 10°C
Voelt als: 7°C
Dauwpunt: 2°C
Vochtigheid: 58%
Barometer: 1013 hPa
Bewolking: Licht bewolkt
Zicht: Meer dan 10 km
Bewolking: Licht bewolkt 2600 ft
EHVL 261325Z AUTO 01013KT 9999 FEW026 10/02 Q1013 BLU
ETWM - Meppen, Germany
Gewijzigd: 26-04-2017 15:20
Nearby Showers, Gedeeltelijk bewolkt  
Nearby Showers, Gedeeltelijk bewolkt  
   Wind: NW 2.6 m/s
Wind: NW 2.6 m/s
Temperatuur: 10°C
Voelt als: 9°C
Dauwpunt: 0°C
Vochtigheid: 50%
Barometer: 1012 hPa
Bewolking: Gedeeltelijk bewolkt
Zicht: Meer dan 10 km
Bewolking: Licht bewolkt 3800 ft,
Gedeeltelijk bewolkt 4900 ft
ETWM 261320Z 32005KT 9999 VCSH FEW038CB SCT049 10/M00 Q1012 BLU+
 

Script ontwikkeld door  Saratoga-weather.org Aangepast voor de template door  Weerstation Leuven

U vindt ons ook hier:

Het Weer Aktueel

UK Metoffice

European Weather Network

WeatherCloud

Weather Underground

Benelux Weer Netwerk

AWEKAS

WeatherlinkIP

HAMweather, WeatherForYou, PWS Weather

Apparatuur in gebruik:

Weerstation
Davis VP2 Plus

Weerprogramma
Cumulus

Weercomputer
ASUS Eee Box B202

Webleverancier
Antagonist

Davis VP2 Plus

Cumulus

ASUS Eee Box B202

Antagonist